sensor_id;sensor_type;location;lat;lon;timestamp;temperature;humidity
65188;SHT30;51775;51.148;6.950;2023-04-08T00:01:44;15.31;61.03
65188;SHT30;51775;51.148;6.950;2023-04-08T00:04:09;15.34;61.08
65188;SHT30;51775;51.148;6.950;2023-04-08T00:06:35;15.31;61.08
65188;SHT30;51775;51.148;6.950;2023-04-08T00:09:00;15.30;61.03
65188;SHT30;51775;51.148;6.950;2023-04-08T00:11:25;15.26;61.13
65188;SHT30;51775;51.148;6.950;2023-04-08T00:13:50;15.26;61.18
65188;SHT30;51775;51.148;6.950;2023-04-08T00:16:16;15.27;61.18
65188;SHT30;51775;51.148;6.950;2023-04-08T00:18:41;15.30;60.91
65188;SHT30;51775;51.148;6.950;2023-04-08T00:21:06;15.31;60.95
65188;SHT30;51775;51.148;6.950;2023-04-08T00:23:32;15.32;60.87
65188;SHT30;51775;51.148;6.950;2023-04-08T00:25:57;15.34;60.88
65188;SHT30;51775;51.148;6.950;2023-04-08T00:28:22;15.37;60.76
65188;SHT30;51775;51.148;6.950;2023-04-08T00:30:47;15.35;60.84
65188;SHT30;51775;51.148;6.950;2023-04-08T00:33:13;15.39;60.85
65188;SHT30;51775;51.148;6.950;2023-04-08T00:35:38;15.37;60.96
65188;SHT30;51775;51.148;6.950;2023-04-08T00:38:03;15.38;60.82
65188;SHT30;51775;51.148;6.950;2023-04-08T00:40:28;15.37;60.80
65188;SHT30;51775;51.148;6.950;2023-04-08T00:42:56;15.37;60.77
65188;SHT30;51775;51.148;6.950;2023-04-08T00:45:21;15.38;60.71
65188;SHT30;51775;51.148;6.950;2023-04-08T00:47:46;15.37;60.76
65188;SHT30;51775;51.148;6.950;2023-04-08T00:50:11;15.38;60.75
65188;SHT30;51775;51.148;6.950;2023-04-08T00:52:37;15.37;60.85
65188;SHT30;51775;51.148;6.950;2023-04-08T00:55:02;15.34;60.71
65188;SHT30;51775;51.148;6.950;2023-04-08T00:57:28;15.39;60.68
65188;SHT30;51775;51.148;6.950;2023-04-08T00:59:53;15.35;60.55
65188;SHT30;51775;51.148;6.950;2023-04-08T01:02:30;15.34;60.60
65188;SHT30;51775;51.148;6.950;2023-04-08T01:05:01;15.34;60.69
65188;SHT30;51775;51.148;6.950;2023-04-08T01:07:31;15.34;60.58
65188;SHT30;51775;51.148;6.950;2023-04-08T01:10:01;15.34;60.53
65188;SHT30;51775;51.148;6.950;2023-04-08T01:12:28;15.34;60.61
65188;SHT30;51775;51.148;6.950;2023-04-08T01:14:58;15.31;60.67
65188;SHT30;51775;51.148;6.950;2023-04-08T01:17:24;15.35;60.60
65188;SHT30;51775;51.148;6.950;2023-04-08T01:19:50;15.34;60.81
65188;SHT30;51775;51.148;6.950;2023-04-08T01:25:04;15.34;60.85
65188;SHT30;51775;51.148;6.950;2023-04-08T01:27:30;15.32;60.79
65188;SHT30;51775;51.148;6.950;2023-04-08T01:29:57;15.31;60.77
65188;SHT30;51775;51.148;6.950;2023-04-08T01:32:24;15.32;60.73
65188;SHT30;51775;51.148;6.950;2023-04-08T01:34:50;15.32;60.87
65188;SHT30;51775;51.148;6.950;2023-04-08T01:37:16;15.30;60.84
65188;SHT30;51775;51.148;6.950;2023-04-08T01:39:42;15.34;60.94
65188;SHT30;51775;51.148;6.950;2023-04-08T01:42:09;15.31;60.98
65188;SHT30;51775;51.148;6.950;2023-04-08T01:44:35;15.31;60.95
65188;SHT30;51775;51.148;6.950;2023-04-08T01:47:02;15.32;60.91
65188;SHT30;51775;51.148;6.950;2023-04-08T01:49:28;15.34;60.94
65188;SHT30;51775;51.148;6.950;2023-04-08T01:51:55;15.34;60.91
65188;SHT30;51775;51.148;6.950;2023-04-08T01:54:21;15.35;60.94
65188;SHT30;51775;51.148;6.950;2023-04-08T01:56:46;15.34;60.93
65188;SHT30;51775;51.148;6.950;2023-04-08T01:59:14;15.34;61.07
65188;SHT30;51775;51.148;6.950;2023-04-08T02:01:42;15.35;61.08
65188;SHT30;51775;51.148;6.950;2023-04-08T02:04:08;15.35;60.94
65188;SHT30;51775;51.148;6.950;2023-04-08T02:06:33;15.34;61.09
65188;SHT30;51775;51.148;6.950;2023-04-08T02:09:00;15.32;61.08
65188;SHT30;51775;51.148;6.950;2023-04-08T02:11:25;15.32;61.08
65188;SHT30;51775;51.148;6.950;2023-04-08T02:13:51;15.34;61.12
65188;SHT30;51775;51.148;6.950;2023-04-08T02:16:30;15.32;61.24
65188;SHT30;51775;51.148;6.950;2023-04-08T02:19:10;15.30;61.21
65188;SHT30;51775;51.148;6.950;2023-04-08T02:21:45;15.28;61.24
65188;SHT30;51775;51.148;6.950;2023-04-08T02:24:12;15.27;61.27
65188;SHT30;51775;51.148;6.950;2023-04-08T02:26:38;15.26;61.39
65188;SHT30;51775;51.148;6.950;2023-04-08T02:29:04;15.28;61.37
65188;SHT30;51775;51.148;6.950;2023-04-08T02:31:30;15.26;61.25
65188;SHT30;51775;51.148;6.950;2023-04-08T02:33:56;15.26;61.21
65188;SHT30;51775;51.148;6.950;2023-04-08T02:36:22;15.27;61.28
65188;SHT30;51775;51.148;6.950;2023-04-08T02:38:48;15.24;61.57
65188;SHT30;51775;51.148;6.950;2023-04-08T02:41:39;15.27;61.32
65188;SHT30;51775;51.148;6.950;2023-04-08T02:44:04;15.27;61.31
65188;SHT30;51775;51.148;6.950;2023-04-08T02:46:30;15.24;61.40
65188;SHT30;51775;51.148;6.950;2023-04-08T02:48:55;15.27;61.22
65188;SHT30;51775;51.148;6.950;2023-04-08T02:51:20;15.26;61.36
65188;SHT30;51775;51.148;6.950;2023-04-08T02:53:45;15.23;61.35
65188;SHT30;51775;51.148;6.950;2023-04-08T02:56:11;15.27;61.34
65188;SHT30;51775;51.148;6.950;2023-04-08T02:58:36;15.26;61.40
65188;SHT30;51775;51.148;6.950;2023-04-08T03:01:02;15.26;61.33
65188;SHT30;51775;51.148;6.950;2023-04-08T03:03:27;15.30;61.39
65188;SHT30;51775;51.148;6.950;2023-04-08T03:05:53;15.28;61.32
65188;SHT30;51775;51.148;6.950;2023-04-08T03:08:19;15.28;61.30
65188;SHT30;51775;51.148;6.950;2023-04-08T03:10:44;15.28;61.30
65188;SHT30;51775;51.148;6.950;2023-04-08T03:13:09;15.28;61.35
65188;SHT30;51775;51.148;6.950;2023-04-08T03:15:34;15.30;61.16
65188;SHT30;51775;51.148;6.950;2023-04-08T03:18:00;15.27;61.29
65188;SHT30;51775;51.148;6.950;2023-04-08T03:20:25;15.24;61.26
65188;SHT30;51775;51.148;6.950;2023-04-08T03:22:50;15.23;61.22
65188;SHT30;51775;51.148;6.950;2023-04-08T03:25:15;15.21;61.27
65188;SHT30;51775;51.148;6.950;2023-04-08T03:27:41;15.16;61.32
65188;SHT30;51775;51.148;6.950;2023-04-08T03:30:07;15.17;61.17
65188;SHT30;51775;51.148;6.950;2023-04-08T03:32:32;15.16;61.17
65188;SHT30;51775;51.148;6.950;2023-04-08T03:34:57;15.16;61.22
65188;SHT30;51775;51.148;6.950;2023-04-08T03:37:23;15.16;61.00
65188;SHT30;51775;51.148;6.950;2023-04-08T03:39:48;15.14;61.21
65188;SHT30;51775;51.148;6.950;2023-04-08T03:42:13;15.16;60.95
65188;SHT30;51775;51.148;6.950;2023-04-08T03:44:38;15.11;60.52
65188;SHT30;51775;51.148;6.950;2023-04-08T03:47:04;15.11;60.47
65188;SHT30;51775;51.148;6.950;2023-04-08T03:49:29;15.14;60.49
65188;SHT30;51775;51.148;6.950;2023-04-08T03:51:54;15.08;60.35
65188;SHT30;51775;51.148;6.950;2023-04-08T03:54:20;15.11;60.18
65188;SHT30;51775;51.148;6.950;2023-04-08T03:56:45;15.12;60.27
65188;SHT30;51775;51.148;6.950;2023-04-08T03:59:10;15.11;60.62
65188;SHT30;51775;51.148;6.950;2023-04-08T04:01:35;15.08;60.94
65188;SHT30;51775;51.148;6.950;2023-04-08T04:04:01;15.10;60.48
65188;SHT30;51775;51.148;6.950;2023-04-08T04:06:26;15.10;60.97
65188;SHT30;51775;51.148;6.950;2023-04-08T04:08:54;15.08;60.99
65188;SHT30;51775;51.148;6.950;2023-04-08T04:11:19;15.10;61.02
65188;SHT30;51775;51.148;6.950;2023-04-08T04:13:45;15.10;60.96
65188;SHT30;51775;51.148;6.950;2023-04-08T04:16:10;15.07;60.39
65188;SHT30;51775;51.148;6.950;2023-04-08T04:18:35;15.10;60.42
65188;SHT30;51775;51.148;6.950;2023-04-08T04:21:04;15.04;59.99
65188;SHT30;51775;51.148;6.950;2023-04-08T04:23:29;15.03;60.16
65188;SHT30;51775;51.148;6.950;2023-04-08T04:25:55;15.03;60.14
65188;SHT30;51775;51.148;6.950;2023-04-08T04:28:20;15.01;59.64
65188;SHT30;51775;51.148;6.950;2023-04-08T04:30:45;15.00;59.46
65188;SHT30;51775;51.148;6.950;2023-04-08T04:33:10;14.97;59.72
65188;SHT30;51775;51.148;6.950;2023-04-08T04:35:36;14.99;59.73
65188;SHT30;51775;51.148;6.950;2023-04-08T04:38:01;14.93;59.64
65188;SHT30;51775;51.148;6.950;2023-04-08T04:40:26;14.96;59.99
65188;SHT30;51775;51.148;6.950;2023-04-08T04:42:51;14.94;60.08
65188;SHT30;51775;51.148;6.950;2023-04-08T04:45:17;14.93;59.95
65188;SHT30;51775;51.148;6.950;2023-04-08T04:47:42;14.89;60.06
65188;SHT30;51775;51.148;6.950;2023-04-08T04:50:08;14.92;59.99
65188;SHT30;51775;51.148;6.950;2023-04-08T04:52:35;14.89;59.97
65188;SHT30;51775;51.148;6.950;2023-04-08T04:55:00;14.92;60.18
65188;SHT30;51775;51.148;6.950;2023-04-08T04:57:25;14.92;60.37
65188;SHT30;51775;51.148;6.950;2023-04-08T04:59:50;14.90;60.34
65188;SHT30;51775;51.148;6.950;2023-04-08T05:02:16;14.93;60.36
65188;SHT30;51775;51.148;6.950;2023-04-08T05:04:41;14.94;60.29
65188;SHT30;51775;51.148;6.950;2023-04-08T05:07:06;14.99;60.27
65188;SHT30;51775;51.148;6.950;2023-04-08T05:09:31;14.97;60.26
65188;SHT30;51775;51.148;6.950;2023-04-08T05:11:57;14.99;60.24
65188;SHT30;51775;51.148;6.950;2023-04-08T05:14:22;15.01;60.17
65188;SHT30;51775;51.148;6.950;2023-04-08T05:16:47;15.03;60.04
65188;SHT30;51775;51.148;6.950;2023-04-08T05:19:13;15.03;59.84
65188;SHT30;51775;51.148;6.950;2023-04-08T05:21:38;15.06;59.90
65188;SHT30;51775;51.148;6.950;2023-04-08T05:24:03;15.08;59.88
65188;SHT30;51775;51.148;6.950;2023-04-08T05:26:28;15.07;59.93
65188;SHT30;51775;51.148;6.950;2023-04-08T05:28:54;15.14;59.88
65188;SHT30;51775;51.148;6.950;2023-04-08T05:31:19;15.14;59.85
65188;SHT30;51775;51.148;6.950;2023-04-08T05:33:45;15.14;59.73
65188;SHT30;51775;51.148;6.950;2023-04-08T05:36:11;15.17;59.62
65188;SHT30;51775;51.148;6.950;2023-04-08T05:38:37;15.20;59.57
65188;SHT30;51775;51.148;6.950;2023-04-08T05:41:02;15.20;59.57
65188;SHT30;51775;51.148;6.950;2023-04-08T05:43:28;15.21;59.61
65188;SHT30;51775;51.148;6.950;2023-04-08T05:45:53;15.23;59.51
65188;SHT30;51775;51.148;6.950;2023-04-08T05:48:18;15.26;59.36
65188;SHT30;51775;51.148;6.950;2023-04-08T05:50:44;15.24;59.20
65188;SHT30;51775;51.148;6.950;2023-04-08T05:53:09;15.26;59.02
65188;SHT30;51775;51.148;6.950;2023-04-08T05:55:34;15.27;58.83
65188;SHT30;51775;51.148;6.950;2023-04-08T05:58:00;15.32;58.90
65188;SHT30;51775;51.148;6.950;2023-04-08T06:00:25;15.30;58.34
65188;SHT30;51775;51.148;6.950;2023-04-08T06:02:51;15.34;58.23
65188;SHT30;51775;51.148;6.950;2023-04-08T06:05:16;15.35;58.18
65188;SHT30;51775;51.148;6.950;2023-04-08T06:07:41;15.32;58.05
65188;SHT30;51775;51.148;6.950;2023-04-08T06:10:07;15.32;57.71
65188;SHT30;51775;51.148;6.950;2023-04-08T06:12:41;15.34;57.74
65188;SHT30;51775;51.148;6.950;2023-04-08T06:15:07;15.32;57.77
65188;SHT30;51775;51.148;6.950;2023-04-08T06:17:35;15.31;57.94
65188;SHT30;51775;51.148;6.950;2023-04-08T06:20:01;15.31;58.14
65188;SHT30;51775;51.148;6.950;2023-04-08T06:22:27;15.30;57.96
65188;SHT30;51775;51.148;6.950;2023-04-08T06:24:52;15.30;57.79
65188;SHT30;51775;51.148;6.950;2023-04-08T06:27:17;15.26;58.21
65188;SHT30;51775;51.148;6.950;2023-04-08T06:29:43;15.26;57.97
65188;SHT30;51775;51.148;6.950;2023-04-08T06:32:08;15.23;57.84
65188;SHT30;51775;51.148;6.950;2023-04-08T06:34:33;15.24;57.95
65188;SHT30;51775;51.148;6.950;2023-04-08T06:36:59;15.24;57.89
65188;SHT30;51775;51.148;6.950;2023-04-08T06:39:24;15.24;58.17
65188;SHT30;51775;51.148;6.950;2023-04-08T06:41:49;15.24;58.08
65188;SHT30;51775;51.148;6.950;2023-04-08T06:44:14;15.17;58.15
65188;SHT30;51775;51.148;6.950;2023-04-08T06:46:47;15.16;57.82
65188;SHT30;51775;51.148;6.950;2023-04-08T06:49:13;15.14;57.32
65188;SHT30;51775;51.148;6.950;2023-04-08T06:51:43;15.16;57.20
65188;SHT30;51775;51.148;6.950;2023-04-08T06:54:08;15.19;57.10
65188;SHT30;51775;51.148;6.950;2023-04-08T06:56:33;15.21;56.98
65188;SHT30;51775;51.148;6.950;2023-04-08T06:58:59;15.23;57.00
65188;SHT30;51775;51.148;6.950;2023-04-08T07:01:24;15.31;57.04
65188;SHT30;51775;51.148;6.950;2023-04-08T07:03:49;15.37;56.95
65188;SHT30;51775;51.148;6.950;2023-04-08T07:06:14;15.41;56.61
65188;SHT30;51775;51.148;6.950;2023-04-08T07:08:40;15.39;56.71
65188;SHT30;51775;51.148;6.950;2023-04-08T07:11:05;15.44;56.95
65188;SHT30;51775;51.148;6.950;2023-04-08T07:13:30;15.42;56.88
65188;SHT30;51775;51.148;6.950;2023-04-08T07:15:57;15.45;57.28
65188;SHT30;51775;51.148;6.950;2023-04-08T07:18:22;15.42;57.61
65188;SHT30;51775;51.148;6.950;2023-04-08T07:20:51;15.41;57.56
65188;SHT30;51775;51.148;6.950;2023-04-08T07:23:16;15.38;57.80
65188;SHT30;51775;51.148;6.950;2023-04-08T07:25:41;15.38;57.96
65188;SHT30;51775;51.148;6.950;2023-04-08T07:28:07;15.35;57.67
65188;SHT30;51775;51.148;6.950;2023-04-08T07:30:32;15.34;57.74
65188;SHT30;51775;51.148;6.950;2023-04-08T07:32:57;15.34;58.07
65188;SHT30;51775;51.148;6.950;2023-04-08T07:35:23;15.32;58.34
65188;SHT30;51775;51.148;6.950;2023-04-08T07:37:48;15.34;58.11
65188;SHT30;51775;51.148;6.950;2023-04-08T07:40:14;15.32;58.49
65188;SHT30;51775;51.148;6.950;2023-04-08T07:42:39;15.27;58.71
65188;SHT30;51775;51.148;6.950;2023-04-08T07:45:05;15.24;58.70
65188;SHT30;51775;51.148;6.950;2023-04-08T07:47:31;15.21;59.09
65188;SHT30;51775;51.148;6.950;2023-04-08T07:49:56;15.20;59.16
65188;SHT30;51775;51.148;6.950;2023-04-08T07:52:22;15.21;58.43
65188;SHT30;51775;51.148;6.950;2023-04-08T07:54:47;15.20;58.66
65188;SHT30;51775;51.148;6.950;2023-04-08T07:57:12;15.17;58.71
65188;SHT30;51775;51.148;6.950;2023-04-08T07:59:37;15.27;57.81
65188;SHT30;51775;51.148;6.950;2023-04-08T08:02:03;15.38;57.61
65188;SHT30;51775;51.148;6.950;2023-04-08T08:04:28;15.42;57.37
65188;SHT30;51775;51.148;6.950;2023-04-08T08:06:53;15.49;57.79
65188;SHT30;51775;51.148;6.950;2023-04-08T08:09:18;15.49;57.96
65188;SHT30;51775;51.148;6.950;2023-04-08T08:11:44;15.52;58.29
65188;SHT30;51775;51.148;6.950;2023-04-08T08:14:09;15.59;58.04
65188;SHT30;51775;51.148;6.950;2023-04-08T08:16:34;15.59;57.48
65188;SHT30;51775;51.148;6.950;2023-04-08T08:18:59;15.61;57.47
65188;SHT30;51775;51.148;6.950;2023-04-08T08:21:25;15.61;57.09
65188;SHT30;51775;51.148;6.950;2023-04-08T08:23:53;15.59;57.55
65188;SHT30;51775;51.148;6.950;2023-04-08T08:26:18;15.57;58.34
65188;SHT30;51775;51.148;6.950;2023-04-08T08:28:43;15.57;57.64
65188;SHT30;51775;51.148;6.950;2023-04-08T08:31:09;15.57;57.71
65188;SHT30;51775;51.148;6.950;2023-04-08T08:33:34;15.57;57.56
65188;SHT30;51775;51.148;6.950;2023-04-08T08:35:59;15.58;57.88
65188;SHT30;51775;51.148;6.950;2023-04-08T08:38:25;15.57;57.70
65188;SHT30;51775;51.148;6.950;2023-04-08T08:40:57;15.58;57.94
65188;SHT30;51775;51.148;6.950;2023-04-08T08:43:23;15.59;57.39
65188;SHT30;51775;51.148;6.950;2023-04-08T08:45:49;15.57;57.87
65188;SHT30;51775;51.148;6.950;2023-04-08T08:48:14;15.59;58.51
65188;SHT30;51775;51.148;6.950;2023-04-08T08:50:39;15.59;57.58
65188;SHT30;51775;51.148;6.950;2023-04-08T08:53:04;15.62;57.34
65188;SHT30;51775;51.148;6.950;2023-04-08T08:55:31;15.65;57.53
65188;SHT30;51775;51.148;6.950;2023-04-08T08:57:56;15.65;57.34
65188;SHT30;51775;51.148;6.950;2023-04-08T09:03:16;15.68;57.47
65188;SHT30;51775;51.148;6.950;2023-04-08T09:05:54;15.70;56.59
65188;SHT30;51775;51.148;6.950;2023-04-08T09:10:55;15.72;56.49
65188;SHT30;51775;51.148;6.950;2023-04-08T09:13:23;15.75;56.91
65188;SHT30;51775;51.148;6.950;2023-04-08T09:16:11;15.70;57.13
65188;SHT30;51775;51.148;6.950;2023-04-08T09:18:37;15.73;56.46
65188;SHT30;51775;51.148;6.950;2023-04-08T09:21:04;15.76;56.82
65188;SHT30;51775;51.148;6.950;2023-04-08T09:23:40;15.78;57.70
65188;SHT30;51775;51.148;6.950;2023-04-08T09:28:33;15.76;56.63
65188;SHT30;51775;51.148;6.950;2023-04-08T09:30:59;15.79;57.12
65188;SHT30;51775;51.148;6.950;2023-04-08T09:33:30;15.83;56.19
65188;SHT30;51775;51.148;6.950;2023-04-08T09:35:55;15.86;55.96
65188;SHT30;51775;51.148;6.950;2023-04-08T09:38:21;15.96;56.95
65188;SHT30;51775;51.148;6.950;2023-04-08T09:40:46;16.03;55.73
65188;SHT30;51775;51.148;6.950;2023-04-08T09:43:12;16.12;54.78
65188;SHT30;51775;51.148;6.950;2023-04-08T09:45:38;16.18;54.29
65188;SHT30;51775;51.148;6.950;2023-04-08T09:48:17;16.27;54.66
65188;SHT30;51775;51.148;6.950;2023-04-08T09:50:49;16.31;54.89
65188;SHT30;51775;51.148;6.950;2023-04-08T09:53:29;16.40;54.05
65188;SHT30;51775;51.148;6.950;2023-04-08T09:55:59;16.45;53.79
65188;SHT30;51775;51.148;6.950;2023-04-08T09:58:41;16.50;54.26
65188;SHT30;51775;51.148;6.950;2023-04-08T10:01:15;16.51;53.29
65188;SHT30;51775;51.148;6.950;2023-04-08T10:03:47;16.55;52.05
65188;SHT30;51775;51.148;6.950;2023-04-08T10:06:14;16.57;53.31
65188;SHT30;51775;51.148;6.950;2023-04-08T10:08:40;16.57;53.10
65188;SHT30;51775;51.148;6.950;2023-04-08T10:11:06;16.64;52.78
65188;SHT30;51775;51.148;6.950;2023-04-08T10:13:32;16.67;53.49
65188;SHT30;51775;51.148;6.950;2023-04-08T10:16:17;16.69;52.54
65188;SHT30;51775;51.148;6.950;2023-04-08T10:18:42;16.73;52.29
65188;SHT30;51775;51.148;6.950;2023-04-08T10:21:44;16.78;52.34
65188;SHT30;51775;51.148;6.950;2023-04-08T10:24:10;16.79;51.60
65188;SHT30;51775;51.148;6.950;2023-04-08T10:26:37;16.85;52.02
65188;SHT30;51775;51.148;6.950;2023-04-08T10:31:44;16.90;51.38
65188;SHT30;51775;51.148;6.950;2023-04-08T10:34:16;16.96;49.35
65188;SHT30;51775;51.148;6.950;2023-04-08T10:36:43;16.99;49.22
65188;SHT30;51775;51.148;6.950;2023-04-08T10:39:09;17.05;50.62
65188;SHT30;51775;51.148;6.950;2023-04-08T10:41:40;17.10;52.58
65188;SHT30;51775;51.148;6.950;2023-04-08T10:44:35;17.20;49.14
65188;SHT30;51775;51.148;6.950;2023-04-08T10:46:59;17.22;47.04
65188;SHT30;51775;51.148;6.950;2023-04-08T10:49:31;17.27;48.19
65188;SHT30;51775;51.148;6.950;2023-04-08T10:51:57;17.26;48.02
65188;SHT30;51775;51.148;6.950;2023-04-08T10:54:22;17.27;48.12
65188;SHT30;51775;51.148;6.950;2023-04-08T10:56:49;17.27;47.74
65188;SHT30;51775;51.148;6.950;2023-04-08T10:59:35;17.28;48.52
65188;SHT30;51775;51.148;6.950;2023-04-08T11:02:00;17.31;47.54
65188;SHT30;51775;51.148;6.950;2023-04-08T11:04:26;17.31;48.24
65188;SHT30;51775;51.148;6.950;2023-04-08T11:06:51;17.31;48.35
65188;SHT30;51775;51.148;6.950;2023-04-08T11:09:16;17.31;49.12
65188;SHT30;51775;51.148;6.950;2023-04-08T11:11:43;17.34;48.81
65188;SHT30;51775;51.148;6.950;2023-04-08T11:14:09;17.36;47.48
65188;SHT30;51775;51.148;6.950;2023-04-08T11:16:35;17.33;48.07
65188;SHT30;51775;51.148;6.950;2023-04-08T11:19:02;17.36;48.36
65188;SHT30;51775;51.148;6.950;2023-04-08T11:21:27;17.33;46.44
65188;SHT30;51775;51.148;6.950;2023-04-08T11:23:53;17.36;45.60
65188;SHT30;51775;51.148;6.950;2023-04-08T11:26:18;17.34;46.30
65188;SHT30;51775;51.148;6.950;2023-04-08T11:28:44;17.36;43.72
65188;SHT30;51775;51.148;6.950;2023-04-08T11:31:11;17.38;45.08
65188;SHT30;51775;51.148;6.950;2023-04-08T11:33:37;17.36;45.26
65188;SHT30;51775;51.148;6.950;2023-04-08T11:36:02;16.79;46.00
65188;SHT30;51775;51.148;6.950;2023-04-08T11:38:27;16.23;47.02
65188;SHT30;51775;51.148;6.950;2023-04-08T11:40:53;15.70;48.87
65188;SHT30;51775;51.148;6.950;2023-04-08T11:43:19;15.34;50.32
65188;SHT30;51775;51.148;6.950;2023-04-08T11:45:44;15.00;48.62
65188;SHT30;51775;51.148;6.950;2023-04-08T11:48:11;14.72;49.03
65188;SHT30;51775;51.148;6.950;2023-04-08T11:50:36;14.71;48.84
65188;SHT30;51775;51.148;6.950;2023-04-08T11:53:02;14.65;49.02
65188;SHT30;51775;51.148;6.950;2023-04-08T11:55:29;14.61;49.87
65188;SHT30;51775;51.148;6.950;2023-04-08T11:57:56;14.55;50.57
65188;SHT30;51775;51.148;6.950;2023-04-08T12:00:25;14.46;49.45
65188;SHT30;51775;51.148;6.950;2023-04-08T12:02:50;14.42;49.68
65188;SHT30;51775;51.148;6.950;2023-04-08T12:05:16;14.36;49.95
65188;SHT30;51775;51.148;6.950;2023-04-08T12:07:42;14.32;50.59
65188;SHT30;51775;51.148;6.950;2023-04-08T12:10:09;14.31;50.08
65188;SHT30;51775;51.148;6.950;2023-04-08T12:12:34;14.29;50.06
65188;SHT30;51775;51.148;6.950;2023-04-08T12:15:00;14.28;49.61
65188;SHT30;51775;51.148;6.950;2023-04-08T12:17:25;14.22;49.83
65188;SHT30;51775;51.148;6.950;2023-04-08T12:19:50;14.21;49.59
65188;SHT30;51775;51.148;6.950;2023-04-08T12:22:15;14.15;50.03
65188;SHT30;51775;51.148;6.950;2023-04-08T12:24:41;14.11;50.70
65188;SHT30;51775;51.148;6.950;2023-04-08T12:27:06;14.24;48.66
65188;SHT30;51775;51.148;6.950;2023-04-08T12:29:31;14.35;46.53
65188;SHT30;51775;51.148;6.950;2023-04-08T12:31:57;14.75;45.98
65188;SHT30;51775;51.148;6.950;2023-04-08T12:34:22;14.94;45.53
65188;SHT30;51775;51.148;6.950;2023-04-08T12:36:47;15.10;44.08
65188;SHT30;51775;51.148;6.950;2023-04-08T12:39:12;15.26;44.86
65188;SHT30;51775;51.148;6.950;2023-04-08T12:41:38;15.38;44.56
65188;SHT30;51775;51.148;6.950;2023-04-08T12:44:03;15.49;43.46
65188;SHT30;51775;51.148;6.950;2023-04-08T12:46:28;15.59;43.75
65188;SHT30;51775;51.148;6.950;2023-04-08T12:48:53;15.70;43.17
65188;SHT30;51775;51.148;6.950;2023-04-08T12:51:19;15.78;43.83
65188;SHT30;51775;51.148;6.950;2023-04-08T12:53:44;15.85;43.86
65188;SHT30;51775;51.148;6.950;2023-04-08T12:56:09;15.90;43.56
65188;SHT30;51775;51.148;6.950;2023-04-08T12:58:34;15.99;43.26
65188;SHT30;51775;51.148;6.950;2023-04-08T13:01:00;16.04;43.00
65188;SHT30;51775;51.148;6.950;2023-04-08T13:03:25;16.13;42.74
65188;SHT30;51775;51.148;6.950;2023-04-08T13:05:52;16.18;42.90
65188;SHT30;51775;51.148;6.950;2023-04-08T13:08:18;16.30;42.56
65188;SHT30;51775;51.148;6.950;2023-04-08T13:10:43;16.37;42.93
65188;SHT30;51775;51.148;6.950;2023-04-08T13:13:08;16.50;42.29
65188;SHT30;51775;51.148;6.950;2023-04-08T13:15:33;16.55;43.06
65188;SHT30;51775;51.148;6.950;2023-04-08T13:17:59;16.57;43.33
65188;SHT30;51775;51.148;6.950;2023-04-08T13:20:24;16.64;43.77
65188;SHT30;51775;51.148;6.950;2023-04-08T13:22:50;16.67;43.56
65188;SHT30;51775;51.148;6.950;2023-04-08T13:25:15;16.72;44.29
65188;SHT30;51775;51.148;6.950;2023-04-08T13:27:40;16.72;44.67
65188;SHT30;51775;51.148;6.950;2023-04-08T13:30:06;16.75;44.00
65188;SHT30;51775;51.148;6.950;2023-04-08T13:32:31;16.78;44.31
65188;SHT30;51775;51.148;6.950;2023-04-08T13:34:57;16.79;44.60
65188;SHT30;51775;51.148;6.950;2023-04-08T13:37:22;16.82;45.29
65188;SHT30;51775;51.148;6.950;2023-04-08T13:39:47;16.81;45.61
65188;SHT30;51775;51.148;6.950;2023-04-08T13:42:12;16.86;45.66
65188;SHT30;51775;51.148;6.950;2023-04-08T13:44:38;16.90;45.26
65188;SHT30;51775;51.148;6.950;2023-04-08T13:47:03;16.96;45.24
65188;SHT30;51775;51.148;6.950;2023-04-08T13:49:28;16.99;45.46
65188;SHT30;51775;51.148;6.950;2023-04-08T13:51:53;17.02;46.40
65188;SHT30;51775;51.148;6.950;2023-04-08T13:54:19;16.98;46.66
65188;SHT30;51775;51.148;6.950;2023-04-08T13:56:44;16.98;46.73
65188;SHT30;51775;51.148;6.950;2023-04-08T13:59:09;16.98;47.01
65188;SHT30;51775;51.148;6.950;2023-04-08T14:01:35;16.99;47.23
65188;SHT30;51775;51.148;6.950;2023-04-08T14:04:00;17.02;47.10
65188;SHT30;51775;51.148;6.950;2023-04-08T14:06:25;17.03;47.34
65188;SHT30;51775;51.148;6.950;2023-04-08T14:08:51;17.06;47.03
65188;SHT30;51775;51.148;6.950;2023-04-08T14:11:16;17.06;47.08
65188;SHT30;51775;51.148;6.950;2023-04-08T14:13:41;17.06;47.00
65188;SHT30;51775;51.148;6.950;2023-04-08T14:16:06;17.08;47.09
65188;SHT30;51775;51.148;6.950;2023-04-08T14:18:32;17.06;47.33
65188;SHT30;51775;51.148;6.950;2023-04-08T14:20:57;17.05;48.15
65188;SHT30;51775;51.148;6.950;2023-04-08T14:23:22;17.10;47.38
65188;SHT30;51775;51.148;6.950;2023-04-08T14:25:47;17.15;47.70
65188;SHT30;51775;51.148;6.950;2023-04-08T14:28:13;17.19;47.35
65188;SHT30;51775;51.148;6.950;2023-04-08T14:30:38;17.28;46.98
65188;SHT30;51775;51.148;6.950;2023-04-08T14:33:03;17.41;46.88
65188;SHT30;51775;51.148;6.950;2023-04-08T14:35:28;17.44;46.59
65188;SHT30;51775;51.148;6.950;2023-04-08T14:37:56;17.48;47.12
65188;SHT30;51775;51.148;6.950;2023-04-08T14:40:21;17.61;46.89
65188;SHT30;51775;51.148;6.950;2023-04-08T14:42:46;17.70;46.62
65188;SHT30;51775;51.148;6.950;2023-04-08T14:45:12;17.73;46.54
65188;SHT30;51775;51.148;6.950;2023-04-08T14:47:37;17.84;46.41
65188;SHT30;51775;51.148;6.950;2023-04-08T14:50:02;17.91;46.39
65188;SHT30;51775;51.148;6.950;2023-04-08T14:52:27;17.85;46.22
65188;SHT30;51775;51.148;6.950;2023-04-08T14:54:53;17.85;46.47
65188;SHT30;51775;51.148;6.950;2023-04-08T14:57:18;17.86;46.18
65188;SHT30;51775;51.148;6.950;2023-04-08T14:59:43;17.86;45.96
65188;SHT30;51775;51.148;6.950;2023-04-08T15:02:09;17.85;46.30
65188;SHT30;51775;51.148;6.950;2023-04-08T15:04:34;17.86;46.55
65188;SHT30;51775;51.148;6.950;2023-04-08T15:06:59;17.84;46.94
65188;SHT30;51775;51.148;6.950;2023-04-08T15:09:24;17.84;46.46
65188;SHT30;51775;51.148;6.950;2023-04-08T15:11:50;17.89;46.76
65188;SHT30;51775;51.148;6.950;2023-04-08T15:14:15;17.88;46.53
65188;SHT30;51775;51.148;6.950;2023-04-08T15:16:40;17.86;46.86
65188;SHT30;51775;51.148;6.950;2023-04-08T15:19:05;17.85;47.12
65188;SHT30;51775;51.148;6.950;2023-04-08T15:21:31;17.89;46.56
65188;SHT30;51775;51.148;6.950;2023-04-08T15:23:56;17.89;46.44
65188;SHT30;51775;51.148;6.950;2023-04-08T15:26:21;17.91;46.82
65188;SHT30;51775;51.148;6.950;2023-04-08T15:28:47;17.95;46.54
65188;SHT30;51775;51.148;6.950;2023-04-08T15:31:12;17.92;46.72
65188;SHT30;51775;51.148;6.950;2023-04-08T15:33:37;17.91;46.70
65188;SHT30;51775;51.148;6.950;2023-04-08T15:36:03;17.91;46.31
65188;SHT30;51775;51.148;6.950;2023-04-08T15:38:29;17.89;46.39